sensor_id;sensor_type;location;lat;lon;timestamp;temperature;humidity
1405;DHT22;697;51.114;6.542;2023-09-19T00:01:39;17.80;95.10
1405;DHT22;697;51.114;6.542;2023-09-19T00:04:07;17.80;94.70
1405;DHT22;697;51.114;6.542;2023-09-19T00:06:35;17.80;94.90
1405;DHT22;697;51.114;6.542;2023-09-19T00:09:02;17.80;95.10
1405;DHT22;697;51.114;6.542;2023-09-19T00:11:29;17.70;95.00
1405;DHT22;697;51.114;6.542;2023-09-19T00:13:56;17.80;95.30
1405;DHT22;697;51.114;6.542;2023-09-19T00:16:25;17.80;95.30
1405;DHT22;697;51.114;6.542;2023-09-19T00:18:52;17.80;95.10
1405;DHT22;697;51.114;6.542;2023-09-19T00:21:20;17.80;94.90
1405;DHT22;697;51.114;6.542;2023-09-19T00:23:47;17.80;94.80
1405;DHT22;697;51.114;6.542;2023-09-19T00:26:14;17.80;94.90
1405;DHT22;697;51.114;6.542;2023-09-19T00:28:43;17.80;94.90
1405;DHT22;697;51.114;6.542;2023-09-19T00:31:10;17.70;94.80
1405;DHT22;697;51.114;6.542;2023-09-19T00:33:37;17.70;95.10
1405;DHT22;697;51.114;6.542;2023-09-19T00:36:04;17.70;95.10
1405;DHT22;697;51.114;6.542;2023-09-19T00:38:32;17.70;94.90
1405;DHT22;697;51.114;6.542;2023-09-19T00:40:59;17.70;95.00
1405;DHT22;697;51.114;6.542;2023-09-19T00:43:26;17.70;94.70
1405;DHT22;697;51.114;6.542;2023-09-19T00:45:55;17.70;94.90
1405;DHT22;697;51.114;6.542;2023-09-19T00:48:22;17.60;94.90
1405;DHT22;697;51.114;6.542;2023-09-19T00:50:51;17.50;94.80
1405;DHT22;697;51.114;6.542;2023-09-19T00:53:21;17.50;95.20
1405;DHT22;697;51.114;6.542;2023-09-19T00:55:50;17.50;95.30
1405;DHT22;697;51.114;6.542;2023-09-19T00:58:18;17.50;95.40
1405;DHT22;697;51.114;6.542;2023-09-19T01:00:46;17.50;95.50
1405;DHT22;697;51.114;6.542;2023-09-19T01:03:13;17.50;95.10
1405;DHT22;697;51.114;6.542;2023-09-19T01:05:40;17.40;95.00
1405;DHT22;697;51.114;6.542;2023-09-19T01:08:07;17.50;95.30
1405;DHT22;697;51.114;6.542;2023-09-19T01:10:40;17.50;95.20
1405;DHT22;697;51.114;6.542;2023-09-19T01:13:18;17.50;95.50
1405;DHT22;697;51.114;6.542;2023-09-19T01:15:54;17.40;95.20
1405;DHT22;697;51.114;6.542;2023-09-19T01:18:27;17.40;95.60
1405;DHT22;697;51.114;6.542;2023-09-19T01:21:03;17.40;95.50
1405;DHT22;697;51.114;6.542;2023-09-19T01:23:42;17.40;95.60
1405;DHT22;697;51.114;6.542;2023-09-19T01:26:29;17.40;95.50
1405;DHT22;697;51.114;6.542;2023-09-19T01:29:15;17.40;95.70
1405;DHT22;697;51.114;6.542;2023-09-19T01:31:47;17.30;95.70
1405;DHT22;697;51.114;6.542;2023-09-19T01:34:16;17.30;96.10
1405;DHT22;697;51.114;6.542;2023-09-19T01:36:43;17.30;95.90
1405;DHT22;697;51.114;6.542;2023-09-19T01:39:11;17.30;95.70
1405;DHT22;697;51.114;6.542;2023-09-19T01:41:55;17.30;95.40
1405;DHT22;697;51.114;6.542;2023-09-19T01:44:30;17.30;95.70
1405;DHT22;697;51.114;6.542;2023-09-19T01:47:05;17.30;95.90
1405;DHT22;697;51.114;6.542;2023-09-19T01:49:42;17.20;95.20
1405;DHT22;697;51.114;6.542;2023-09-19T01:52:12;17.20;95.40
1405;DHT22;697;51.114;6.542;2023-09-19T01:54:46;17.20;95.70
1405;DHT22;697;51.114;6.542;2023-09-19T01:57:20;17.20;95.20
1405;DHT22;697;51.114;6.542;2023-09-19T01:59:52;17.10;95.40
1405;DHT22;697;51.114;6.542;2023-09-19T02:02:23;17.10;95.40
1405;DHT22;697;51.114;6.542;2023-09-19T02:04:51;17.10;95.30
1405;DHT22;697;51.114;6.542;2023-09-19T02:07:18;17.10;95.60
1405;DHT22;697;51.114;6.542;2023-09-19T02:09:45;17.10;95.60
1405;DHT22;697;51.114;6.542;2023-09-19T02:12:13;17.10;95.50
1405;DHT22;697;51.114;6.542;2023-09-19T02:14:41;17.10;94.90
1405;DHT22;697;51.114;6.542;2023-09-19T02:17:07;17.10;95.00
1405;DHT22;697;51.114;6.542;2023-09-19T02:19:38;17.00;95.00
1405;DHT22;697;51.114;6.542;2023-09-19T02:22:07;17.00;95.20
1405;DHT22;697;51.114;6.542;2023-09-19T02:24:35;17.00;95.50
1405;DHT22;697;51.114;6.542;2023-09-19T02:27:03;17.00;95.20
1405;DHT22;697;51.114;6.542;2023-09-19T02:29:33;17.10;95.10
1405;DHT22;697;51.114;6.542;2023-09-19T02:32:00;17.10;95.50
1405;DHT22;697;51.114;6.542;2023-09-19T02:34:28;17.00;94.40
1405;DHT22;697;51.114;6.542;2023-09-19T02:36:56;17.00;94.70
1405;DHT22;697;51.114;6.542;2023-09-19T02:39:23;17.00;94.00
1405;DHT22;697;51.114;6.542;2023-09-19T02:41:50;16.90;94.00
1405;DHT22;697;51.114;6.542;2023-09-19T02:44:16;16.80;93.70
1405;DHT22;697;51.114;6.542;2023-09-19T02:46:45;16.90;94.20
1405;DHT22;697;51.114;6.542;2023-09-19T02:49:12;16.80;93.90
1405;DHT22;697;51.114;6.542;2023-09-19T02:51:39;16.80;93.80
1405;DHT22;697;51.114;6.542;2023-09-19T02:54:08;16.80;94.00
1405;DHT22;697;51.114;6.542;2023-09-19T02:56:35;16.80;93.50
1405;DHT22;697;51.114;6.542;2023-09-19T02:59:02;16.80;93.70
1405;DHT22;697;51.114;6.542;2023-09-19T03:01:29;16.80;93.60
1405;DHT22;697;51.114;6.542;2023-09-19T03:03:56;16.80;93.20
1405;DHT22;697;51.114;6.542;2023-09-19T03:06:23;16.80;93.40
1405;DHT22;697;51.114;6.542;2023-09-19T03:08:50;16.80;93.60
1405;DHT22;697;51.114;6.542;2023-09-19T03:11:18;16.70;93.40
1405;DHT22;697;51.114;6.542;2023-09-19T03:13:51;16.70;93.60
1405;DHT22;697;51.114;6.542;2023-09-19T03:16:18;16.60;93.50
1405;DHT22;697;51.114;6.542;2023-09-19T03:18:47;16.60;93.80
1405;DHT22;697;51.114;6.542;2023-09-19T03:21:14;16.60;93.80
1405;DHT22;697;51.114;6.542;2023-09-19T03:23:41;16.70;93.70
1405;DHT22;697;51.114;6.542;2023-09-19T03:26:08;16.70;94.00
1405;DHT22;697;51.114;6.542;2023-09-19T03:28:37;16.70;93.90
1405;DHT22;697;51.114;6.542;2023-09-19T03:31:05;16.70;93.70
1405;DHT22;697;51.114;6.542;2023-09-19T03:33:32;16.70;93.90
1405;DHT22;697;51.114;6.542;2023-09-19T03:36:00;16.70;93.90
1405;DHT22;697;51.114;6.542;2023-09-19T03:38:27;16.70;93.80
1405;DHT22;697;51.114;6.542;2023-09-19T03:40:54;16.70;93.90
1405;DHT22;697;51.114;6.542;2023-09-19T03:43:21;16.70;94.00
1405;DHT22;697;51.114;6.542;2023-09-19T03:45:49;16.70;94.20
1405;DHT22;697;51.114;6.542;2023-09-19T03:48:16;16.70;94.00
1405;DHT22;697;51.114;6.542;2023-09-19T03:50:43;16.70;94.10
1405;DHT22;697;51.114;6.542;2023-09-19T03:53:09;16.70;94.10
1405;DHT22;697;51.114;6.542;2023-09-19T03:55:36;16.70;94.10
1405;DHT22;697;51.114;6.542;2023-09-19T03:58:04;16.70;94.20
1405;DHT22;697;51.114;6.542;2023-09-19T04:00:30;16.80;93.80
1405;DHT22;697;51.114;6.542;2023-09-19T04:02:58;16.80;93.80
1405;DHT22;697;51.114;6.542;2023-09-19T04:05:27;16.80;94.00
1405;DHT22;697;51.114;6.542;2023-09-19T04:07:54;16.80;93.30
1405;DHT22;697;51.114;6.542;2023-09-19T04:10:21;16.80;93.30
1405;DHT22;697;51.114;6.542;2023-09-19T04:12:51;16.80;93.20
1405;DHT22;697;51.114;6.542;2023-09-19T04:15:19;16.70;93.60
1405;DHT22;697;51.114;6.542;2023-09-19T04:17:47;16.80;93.70
1405;DHT22;697;51.114;6.542;2023-09-19T04:20:16;16.70;93.80
1405;DHT22;697;51.114;6.542;2023-09-19T04:22:44;16.70;93.60
1405;DHT22;697;51.114;6.542;2023-09-19T04:25:10;16.80;93.90
1405;DHT22;697;51.114;6.542;2023-09-19T04:27:37;16.80;93.90
1405;DHT22;697;51.114;6.542;2023-09-19T04:30:06;16.70;93.60
1405;DHT22;697;51.114;6.542;2023-09-19T04:32:35;16.80;93.90
1405;DHT22;697;51.114;6.542;2023-09-19T04:35:04;16.70;94.00
1405;DHT22;697;51.114;6.542;2023-09-19T04:37:33;16.70;93.90
1405;DHT22;697;51.114;6.542;2023-09-19T04:40:00;16.60;93.60
1405;DHT22;697;51.114;6.542;2023-09-19T04:42:30;16.60;93.70
1405;DHT22;697;51.114;6.542;2023-09-19T04:44:56;16.60;93.70
1405;DHT22;697;51.114;6.542;2023-09-19T04:47:25;16.60;93.70
1405;DHT22;697;51.114;6.542;2023-09-19T04:49:52;16.60;93.80
1405;DHT22;697;51.114;6.542;2023-09-19T04:52:19;16.60;93.70
1405;DHT22;697;51.114;6.542;2023-09-19T04:54:47;16.50;93.70
1405;DHT22;697;51.114;6.542;2023-09-19T04:57:14;16.50;93.20
1405;DHT22;697;51.114;6.542;2023-09-19T04:59:41;16.50;93.30
1405;DHT22;697;51.114;6.542;2023-09-19T05:02:08;16.40;93.40
1405;DHT22;697;51.114;6.542;2023-09-19T05:04:34;16.50;93.50
1405;DHT22;697;51.114;6.542;2023-09-19T05:07:01;16.50;93.40
1405;DHT22;697;51.114;6.542;2023-09-19T05:09:29;16.50;93.10
1405;DHT22;697;51.114;6.542;2023-09-19T05:11:57;16.50;92.90
1405;DHT22;697;51.114;6.542;2023-09-19T05:14:24;16.50;92.80
1405;DHT22;697;51.114;6.542;2023-09-19T05:16:50;16.50;92.30
1405;DHT22;697;51.114;6.542;2023-09-19T05:19:17;16.50;92.90
1405;DHT22;697;51.114;6.542;2023-09-19T05:21:44;16.50;92.70
1405;DHT22;697;51.114;6.542;2023-09-19T05:24:11;16.50;92.50
1405;DHT22;697;51.114;6.542;2023-09-19T05:26:40;16.50;92.50
1405;DHT22;697;51.114;6.542;2023-09-19T05:29:08;16.50;92.50
1405;DHT22;697;51.114;6.542;2023-09-19T05:31:34;16.50;92.40
1405;DHT22;697;51.114;6.542;2023-09-19T05:34:06;16.50;92.60
1405;DHT22;697;51.114;6.542;2023-09-19T05:36:33;16.50;92.80
1405;DHT22;697;51.114;6.542;2023-09-19T05:38:59;16.40;92.80
1405;DHT22;697;51.114;6.542;2023-09-19T05:41:26;16.40;92.60
1405;DHT22;697;51.114;6.542;2023-09-19T05:43:53;16.30;92.40
1405;DHT22;697;51.114;6.542;2023-09-19T05:46:21;16.40;92.90
1405;DHT22;697;51.114;6.542;2023-09-19T05:48:48;16.40;93.00
1405;DHT22;697;51.114;6.542;2023-09-19T05:51:15;16.40;93.10
1405;DHT22;697;51.114;6.542;2023-09-19T05:53:43;16.40;93.20
1405;DHT22;697;51.114;6.542;2023-09-19T05:56:13;16.40;93.30
1405;DHT22;697;51.114;6.542;2023-09-19T05:58:40;16.30;93.10
1405;DHT22;697;51.114;6.542;2023-09-19T06:01:09;16.30;93.60
1405;DHT22;697;51.114;6.542;2023-09-19T06:03:37;16.30;93.60
1405;DHT22;697;51.114;6.542;2023-09-19T06:06:04;16.40;93.70
1405;DHT22;697;51.114;6.542;2023-09-19T06:08:32;16.40;93.90
1405;DHT22;697;51.114;6.542;2023-09-19T06:10:59;16.40;94.00
1405;DHT22;697;51.114;6.542;2023-09-19T06:13:27;16.40;94.00
1405;DHT22;697;51.114;6.542;2023-09-19T06:15:54;16.50;93.70
1405;DHT22;697;51.114;6.542;2023-09-19T06:18:21;16.50;93.90
1405;DHT22;697;51.114;6.542;2023-09-19T06:20:53;16.50;93.60
1405;DHT22;697;51.114;6.542;2023-09-19T06:23:21;16.50;93.70
1405;DHT22;697;51.114;6.542;2023-09-19T06:25:48;16.60;94.00
1405;DHT22;697;51.114;6.542;2023-09-19T06:28:15;16.60;93.90
1405;DHT22;697;51.114;6.542;2023-09-19T06:30:45;16.60;93.90
1405;DHT22;697;51.114;6.542;2023-09-19T06:33:13;16.60;93.80
1405;DHT22;697;51.114;6.542;2023-09-19T06:35:39;16.60;93.80
1405;DHT22;697;51.114;6.542;2023-09-19T06:38:08;16.60;94.00
1405;DHT22;697;51.114;6.542;2023-09-19T06:40:38;16.70;93.90
1405;DHT22;697;51.114;6.542;2023-09-19T06:43:05;16.80;93.80
1405;DHT22;697;51.114;6.542;2023-09-19T06:45:32;16.80;93.80
1405;DHT22;697;51.114;6.542;2023-09-19T06:47:58;16.90;93.60
1405;DHT22;697;51.114;6.542;2023-09-19T06:50:26;16.90;93.50
1405;DHT22;697;51.114;6.542;2023-09-19T06:52:54;17.00;93.20
1405;DHT22;697;51.114;6.542;2023-09-19T06:55:24;17.00;93.40
1405;DHT22;697;51.114;6.542;2023-09-19T06:57:53;17.10;93.30
1405;DHT22;697;51.114;6.542;2023-09-19T07:00:20;17.10;93.40
1405;DHT22;697;51.114;6.542;2023-09-19T07:02:55;17.10;93.40
1405;DHT22;697;51.114;6.542;2023-09-19T07:05:22;17.20;93.40
1405;DHT22;697;51.114;6.542;2023-09-19T07:07:49;17.30;93.20
1405;DHT22;697;51.114;6.542;2023-09-19T07:10:16;17.30;93.00
1405;DHT22;697;51.114;6.542;2023-09-19T07:12:44;17.30;92.90
1405;DHT22;697;51.114;6.542;2023-09-19T07:15:12;17.30;92.80
1405;DHT22;697;51.114;6.542;2023-09-19T07:17:39;17.30;92.80
1405;DHT22;697;51.114;6.542;2023-09-19T07:20:06;17.40;93.00
1405;DHT22;697;51.114;6.542;2023-09-19T07:22:33;17.50;93.00
1405;DHT22;697;51.114;6.542;2023-09-19T07:25:00;17.60;92.80
1405;DHT22;697;51.114;6.542;2023-09-19T07:27:27;17.60;92.20
1405;DHT22;697;51.114;6.542;2023-09-19T07:29:55;17.60;92.50
1405;DHT22;697;51.114;6.542;2023-09-19T07:32:22;17.70;92.20
1405;DHT22;697;51.114;6.542;2023-09-19T07:34:49;17.70;92.20
1405;DHT22;697;51.114;6.542;2023-09-19T07:37:16;17.70;92.10
1405;DHT22;697;51.114;6.542;2023-09-19T07:39:42;17.80;92.20
1405;DHT22;697;51.114;6.542;2023-09-19T07:42:10;17.80;92.10
1405;DHT22;697;51.114;6.542;2023-09-19T07:44:43;18.00;92.00
1405;DHT22;697;51.114;6.542;2023-09-19T07:47:13;18.00;91.40
1405;DHT22;697;51.114;6.542;2023-09-19T07:49:40;18.10;91.20
1405;DHT22;697;51.114;6.542;2023-09-19T07:52:07;18.10;91.30
1405;DHT22;697;51.114;6.542;2023-09-19T07:54:34;18.20;91.30
1405;DHT22;697;51.114;6.542;2023-09-19T07:57:01;18.30;90.60
1405;DHT22;697;51.114;6.542;2023-09-19T07:59:28;18.30;90.90
1405;DHT22;697;51.114;6.542;2023-09-19T08:01:54;18.30;91.00
1405;DHT22;697;51.114;6.542;2023-09-19T08:04:22;18.40;90.90
1405;DHT22;697;51.114;6.542;2023-09-19T08:06:51;18.50;90.50
1405;DHT22;697;51.114;6.542;2023-09-19T08:09:18;18.60;90.40
1405;DHT22;697;51.114;6.542;2023-09-19T08:11:46;18.60;89.20
1405;DHT22;697;51.114;6.542;2023-09-19T08:14:13;18.60;89.80
1405;DHT22;697;51.114;6.542;2023-09-19T08:16:40;18.70;90.40
1405;DHT22;697;51.114;6.542;2023-09-19T08:19:08;18.70;90.10
1405;DHT22;697;51.114;6.542;2023-09-19T08:21:38;18.90;90.00
1405;DHT22;697;51.114;6.542;2023-09-19T08:24:05;19.00;90.10
1405;DHT22;697;51.114;6.542;2023-09-19T08:26:31;19.10;89.10
1405;DHT22;697;51.114;6.542;2023-09-19T08:28:58;19.20;89.40
1405;DHT22;697;51.114;6.542;2023-09-19T08:31:30;19.30;86.90
1405;DHT22;697;51.114;6.542;2023-09-19T08:33:57;19.30;87.20
1405;DHT22;697;51.114;6.542;2023-09-19T08:36:23;19.30;86.70
1405;DHT22;697;51.114;6.542;2023-09-19T08:38:51;19.30;86.90
1405;DHT22;697;51.114;6.542;2023-09-19T08:41:18;19.40;87.30
1405;DHT22;697;51.114;6.542;2023-09-19T08:43:45;19.50;87.70
1405;DHT22;697;51.114;6.542;2023-09-19T08:46:15;19.40;83.50
1405;DHT22;697;51.114;6.542;2023-09-19T08:48:46;19.40;85.00
1405;DHT22;697;51.114;6.542;2023-09-19T08:51:18;19.40;85.60
1405;DHT22;697;51.114;6.542;2023-09-19T08:53:54;19.50;86.60
1405;DHT22;697;51.114;6.542;2023-09-19T08:56:26;19.60;85.80
1405;DHT22;697;51.114;6.542;2023-09-19T08:58:57;19.70;84.30
1405;DHT22;697;51.114;6.542;2023-09-19T09:01:28;19.90;84.80
1405;DHT22;697;51.114;6.542;2023-09-19T09:03:56;20.00;82.50
1405;DHT22;697;51.114;6.542;2023-09-19T09:06:24;20.00;81.20
1405;DHT22;697;51.114;6.542;2023-09-19T09:08:52;19.90;81.90
1405;DHT22;697;51.114;6.542;2023-09-19T09:11:20;19.90;80.40
1405;DHT22;697;51.114;6.542;2023-09-19T09:13:48;19.90;80.70
1405;DHT22;697;51.114;6.542;2023-09-19T09:16:15;19.80;80.80
1405;DHT22;697;51.114;6.542;2023-09-19T09:18:44;20.00;82.30
1405;DHT22;697;51.114;6.542;2023-09-19T09:21:11;20.00;82.10
1405;DHT22;697;51.114;6.542;2023-09-19T09:23:41;20.10;80.70
1405;DHT22;697;51.114;6.542;2023-09-19T09:26:09;20.20;80.40
1405;DHT22;697;51.114;6.542;2023-09-19T09:28:36;20.20;79.40
1405;DHT22;697;51.114;6.542;2023-09-19T09:31:22;20.30;80.00
1405;DHT22;697;51.114;6.542;2023-09-19T09:33:53;20.40;77.90
1405;DHT22;697;51.114;6.542;2023-09-19T09:36:33;20.30;77.40
1405;DHT22;697;51.114;6.542;2023-09-19T09:39:02;20.40;76.60
1405;DHT22;697;51.114;6.542;2023-09-19T09:41:42;20.50;77.60
1405;DHT22;697;51.114;6.542;2023-09-19T09:44:13;20.50;76.30
1405;DHT22;697;51.114;6.542;2023-09-19T09:46:42;20.70;77.10
1405;DHT22;697;51.114;6.542;2023-09-19T09:49:35;20.80;77.20
1405;DHT22;697;51.114;6.542;2023-09-19T09:52:03;20.80;75.00
1405;DHT22;697;51.114;6.542;2023-09-19T09:54:33;20.80;74.20
1405;DHT22;697;51.114;6.542;2023-09-19T09:57:04;20.90;77.30
1405;DHT22;697;51.114;6.542;2023-09-19T09:59:50;21.00;74.70
1405;DHT22;697;51.114;6.542;2023-09-19T10:02:20;21.10;74.40
1405;DHT22;697;51.114;6.542;2023-09-19T10:04:54;21.30;73.20
1405;DHT22;697;51.114;6.542;2023-09-19T10:07:33;21.30;72.40
1405;DHT22;697;51.114;6.542;2023-09-19T10:10:06;21.30;71.90
1405;DHT22;697;51.114;6.542;2023-09-19T10:12:44;21.40;72.80
1405;DHT22;697;51.114;6.542;2023-09-19T10:15:15;21.60;72.50
1405;DHT22;697;51.114;6.542;2023-09-19T10:17:44;21.70;71.70
1405;DHT22;697;51.114;6.542;2023-09-19T10:20:16;21.80;70.50
1405;DHT22;697;51.114;6.542;2023-09-19T10:22:49;21.90;70.10
1405;DHT22;697;51.114;6.542;2023-09-19T10:25:25;21.80;70.00
1405;DHT22;697;51.114;6.542;2023-09-19T10:27:56;21.80;69.60
1405;DHT22;697;51.114;6.542;2023-09-19T10:30:24;21.90;69.00
1405;DHT22;697;51.114;6.542;2023-09-19T10:32:58;22.10;67.60
1405;DHT22;697;51.114;6.542;2023-09-19T10:35:26;22.20;67.10
1405;DHT22;697;51.114;6.542;2023-09-19T10:37:54;22.50;66.40
1405;DHT22;697;51.114;6.542;2023-09-19T10:40:24;22.80;66.60
1405;DHT22;697;51.114;6.542;2023-09-19T10:43:01;23.00;66.00
1405;DHT22;697;51.114;6.542;2023-09-19T10:45:31;23.10;63.90
1405;DHT22;697;51.114;6.542;2023-09-19T10:47:58;23.20;61.50
1405;DHT22;697;51.114;6.542;2023-09-19T10:50:25;23.40;60.90
1405;DHT22;697;51.114;6.542;2023-09-19T10:52:54;23.70;62.10
1405;DHT22;697;51.114;6.542;2023-09-19T10:55:28;23.80;60.00
1405;DHT22;697;51.114;6.542;2023-09-19T10:57:55;23.70;58.20
1405;DHT22;697;51.114;6.542;2023-09-19T11:00:24;23.60;59.30
1405;DHT22;697;51.114;6.542;2023-09-19T11:03:18;23.80;58.90
1405;DHT22;697;51.114;6.542;2023-09-19T11:06:04;24.10;57.60
1405;DHT22;697;51.114;6.542;2023-09-19T11:08:57;24.60;56.00
1405;DHT22;697;51.114;6.542;2023-09-19T11:11:43;24.80;54.40
1405;DHT22;697;51.114;6.542;2023-09-19T11:20:22;25.60;52.50
1405;DHT22;697;51.114;6.542;2023-09-19T11:23:18;26.10;52.30
1405;DHT22;697;51.114;6.542;2023-09-19T11:25:48;26.00;49.00
1405;DHT22;697;51.114;6.542;2023-09-19T11:28:29;26.00;48.70
1405;DHT22;697;51.114;6.542;2023-09-19T11:30:57;25.90;47.60
1405;DHT22;697;51.114;6.542;2023-09-19T11:33:25;26.00;47.90
1405;DHT22;697;51.114;6.542;2023-09-19T11:36:03;26.40;47.00
1405;DHT22;697;51.114;6.542;2023-09-19T11:38:58;26.50;46.90
1405;DHT22;697;51.114;6.542;2023-09-19T11:41:39;27.00;46.00
1405;DHT22;697;51.114;6.542;2023-09-19T11:44:31;27.80;45.00
1405;DHT22;697;51.114;6.542;2023-09-19T11:47:00;28.40;41.80
1405;DHT22;697;51.114;6.542;2023-09-19T11:49:30;28.90;40.30
1405;DHT22;697;51.114;6.542;2023-09-19T11:51:59;29.30;40.00
1405;DHT22;697;51.114;6.542;2023-09-19T11:54:27;29.80;40.50
1405;DHT22;697;51.114;6.542;2023-09-19T11:56:57;30.40;38.30
1405;DHT22;697;51.114;6.542;2023-09-19T11:59:25;31.00;36.20
1405;DHT22;697;51.114;6.542;2023-09-19T12:01:54;31.30;34.40
1405;DHT22;697;51.114;6.542;2023-09-19T12:04:33;31.90;35.10
1405;DHT22;697;51.114;6.542;2023-09-19T12:07:05;32.10;32.50
1405;DHT22;697;51.114;6.542;2023-09-19T12:09:38;31.90;32.30
1405;DHT22;697;51.114;6.542;2023-09-19T12:12:05;32.00;32.00
1405;DHT22;697;51.114;6.542;2023-09-19T12:14:32;32.10;31.70
1405;DHT22;697;51.114;6.542;2023-09-19T12:16:59;32.30;31.70
1405;DHT22;697;51.114;6.542;2023-09-19T12:19:27;32.10;30.90
1405;DHT22;697;51.114;6.542;2023-09-19T12:21:55;32.30;32.70
1405;DHT22;697;51.114;6.542;2023-09-19T12:24:25;32.60;31.00
1405;DHT22;697;51.114;6.542;2023-09-19T12:26:59;32.80;30.80
1405;DHT22;697;51.114;6.542;2023-09-19T12:29:30;33.20;30.40
1405;DHT22;697;51.114;6.542;2023-09-19T12:31:58;32.80;29.50
1405;DHT22;697;51.114;6.542;2023-09-19T12:34:26;32.60;30.70
1405;DHT22;697;51.114;6.542;2023-09-19T12:37:07;33.10;30.20
1405;DHT22;697;51.114;6.542;2023-09-19T12:39:40;33.20;29.50
1405;DHT22;697;51.114;6.542;2023-09-19T12:42:13;33.70;29.60
1405;DHT22;697;51.114;6.542;2023-09-19T12:44:41;33.90;28.70
1405;DHT22;697;51.114;6.542;2023-09-19T12:47:10;33.90;29.20
1405;DHT22;697;51.114;6.542;2023-09-19T12:52:45;33.70;28.70
1405;DHT22;697;51.114;6.542;2023-09-19T12:55:24;33.80;28.20
1405;DHT22;697;51.114;6.542;2023-09-19T12:58:08;34.00;29.00
1405;DHT22;697;51.114;6.542;2023-09-19T13:00:37;34.00;27.50
1405;DHT22;697;51.114;6.542;2023-09-19T13:03:15;33.50;28.60
1405;DHT22;697;51.114;6.542;2023-09-19T13:05:48;32.60;29.20
1405;DHT22;697;51.114;6.542;2023-09-19T13:08:18;31.90;30.40
1405;DHT22;697;51.114;6.542;2023-09-19T13:11:07;31.70;32.30
1405;DHT22;697;51.114;6.542;2023-09-19T13:13:36;31.70;31.80
1405;DHT22;697;51.114;6.542;2023-09-19T13:16:03;31.90;31.00
1405;DHT22;697;51.114;6.542;2023-09-19T13:18:41;31.80;31.50
1405;DHT22;697;51.114;6.542;2023-09-19T13:21:11;31.90;31.80
1405;DHT22;697;51.114;6.542;2023-09-19T13:23:41;32.10;31.70
1405;DHT22;697;51.114;6.542;2023-09-19T13:26:10;31.70;30.60
1405;DHT22;697;51.114;6.542;2023-09-19T13:28:37;30.80;32.20
1405;DHT22;697;51.114;6.542;2023-09-19T13:31:04;30.30;34.00
1405;DHT22;697;51.114;6.542;2023-09-19T13:33:31;29.50;35.70
1405;DHT22;697;51.114;6.542;2023-09-19T13:35:58;29.10;36.80
1405;DHT22;697;51.114;6.542;2023-09-19T13:38:25;28.60;38.00
1405;DHT22;697;51.114;6.542;2023-09-19T13:40:51;28.00;38.40
1405;DHT22;697;51.114;6.542;2023-09-19T13:43:20;27.50;40.30
1405;DHT22;697;51.114;6.542;2023-09-19T13:45:47;26.80;41.20
1405;DHT22;697;51.114;6.542;2023-09-19T13:48:15;26.00;42.20
1405;DHT22;697;51.114;6.542;2023-09-19T13:50:48;25.40;43.90
1405;DHT22;697;51.114;6.542;2023-09-19T13:53:14;24.90;45.10
1405;DHT22;697;51.114;6.542;2023-09-19T13:55:42;24.60;45.60
1405;DHT22;697;51.114;6.542;2023-09-19T13:58:08;24.30;46.70
1405;DHT22;697;51.114;6.542;2023-09-19T14:00:38;24.00;47.40
1405;DHT22;697;51.114;6.542;2023-09-19T14:03:05;23.80;47.60
1405;DHT22;697;51.114;6.542;2023-09-19T14:05:32;23.80;48.90
1405;DHT22;697;51.114;6.542;2023-09-19T14:07:58;23.80;49.20
1405;DHT22;697;51.114;6.542;2023-09-19T14:10:26;23.80;50.20
1405;DHT22;697;51.114;6.542;2023-09-19T14:12:55;23.70;49.00
1405;DHT22;697;51.114;6.542;2023-09-19T14:15:22;23.70;50.70
1405;DHT22;697;51.114;6.542;2023-09-19T14:17:56;23.80;50.30
1405;DHT22;697;51.114;6.542;2023-09-19T14:20:24;24.30;49.20
1405;DHT22;697;51.114;6.542;2023-09-19T14:22:52;24.60;49.30
1405;DHT22;697;51.114;6.542;2023-09-19T14:25:18;25.30;47.50
1405;DHT22;697;51.114;6.542;2023-09-19T14:27:46;25.70;46.20
1405;DHT22;697;51.114;6.542;2023-09-19T14:30:14;25.50;46.00
1405;DHT22;697;51.114;6.542;2023-09-19T14:32:41;25.00;47.10
1405;DHT22;697;51.114;6.542;2023-09-19T14:35:09;24.60;48.10
1405;DHT22;697;51.114;6.542;2023-09-19T14:37:36;24.20;48.70
1405;DHT22;697;51.114;6.542;2023-09-19T14:40:05;24.00;50.60
1405;DHT22;697;51.114;6.542;2023-09-19T14:42:34;23.80;50.60
1405;DHT22;697;51.114;6.542;2023-09-19T14:45:02;23.60;50.80
1405;DHT22;697;51.114;6.542;2023-09-19T14:47:30;23.30;51.50
1405;DHT22;697;51.114;6.542;2023-09-19T14:49:57;23.20;51.90
1405;DHT22;697;51.114;6.542;2023-09-19T14:52:26;22.90;51.30
1405;DHT22;697;51.114;6.542;2023-09-19T14:54:53;22.70;52.60
1405;DHT22;697;51.114;6.542;2023-09-19T14:57:20;22.40;51.60
1405;DHT22;697;51.114;6.542;2023-09-19T14:59:49;22.40;53.60
1405;DHT22;697;51.114;6.542;2023-09-19T15:02:16;22.20;53.70
1405;DHT22;697;51.114;6.542;2023-09-19T15:04:43;22.10;54.20
1405;DHT22;697;51.114;6.542;2023-09-19T15:07:10;22.20;54.90
1405;DHT22;697;51.114;6.542;2023-09-19T15:09:38;22.20;54.10
1405;DHT22;697;51.114;6.542;2023-09-19T15:12:05;22.10;54.20
1405;DHT22;697;51.114;6.542;2023-09-19T15:14:32;22.10;55.20
1405;DHT22;697;51.114;6.542;2023-09-19T15:16:59;22.10;55.60
1405;DHT22;697;51.114;6.542;2023-09-19T15:19:25;22.00;55.40
1405;DHT22;697;51.114;6.542;2023-09-19T15:21:52;22.00;55.50
1405;DHT22;697;51.114;6.542;2023-09-19T15:24:19;22.00;56.30
1405;DHT22;697;51.114;6.542;2023-09-19T15:26:47;22.00;55.90
1405;DHT22;697;51.114;6.542;2023-09-19T15:29:14;22.00;56.40
1405;DHT22;697;51.114;6.542;2023-09-19T15:31:41;22.00;56.70
1405;DHT22;697;51.114;6.542;2023-09-19T15:34:08;21.90;55.90
1405;DHT22;697;51.114;6.542;2023-09-19T15:36:36;22.00;57.10
1405;DHT22;697;51.114;6.542;2023-09-19T15:39:05;22.00;56.30
1405;DHT22;697;51.114;6.542;2023-09-19T15:41:34;22.10;56.40
1405;DHT22;697;51.114;6.542;2023-09-19T15:44:07;22.10;56.10
1405;DHT22;697;51.114;6.542;2023-09-19T15:46:37;22.20;56.10
1405;DHT22;697;51.114;6.542;2023-09-19T15:49:04;22.30;56.30
1405;DHT22;697;51.114;6.542;2023-09-19T15:51:31;22.30;55.60
1405;DHT22;697;51.114;6.542;2023-09-19T15:53:58;22.30;55.90
1405;DHT22;697;51.114;6.542;2023-09-19T15:56:26;22.30;56.80
1405;DHT22;697;51.114;6.542;2023-09-19T15:58:54;22.40;56.80
1405;DHT22;697;51.114;6.542;2023-09-19T16:01:23;22.50;56.40
1405;DHT22;697;51.114;6.542;2023-09-19T16:03:50;22.90;55.80
1405;DHT22;697;51.114;6.542;2023-09-19T16:06:20;23.30;53.80
1405;DHT22;697;51.114;6.542;2023-09-19T16:08:49;23.70;52.50
1405;DHT22;697;51.114;6.542;2023-09-19T16:11:17;23.90;52.70
1405;DHT22;697;51.114;6.542;2023-09-19T16:13:47;23.90;51.90
1405;DHT22;697;51.114;6.542;2023-09-19T16:16:14;24.00;52.50
1405;DHT22;697;51.114;6.542;2023-09-19T16:18:46;24.00;52.70
1405;DHT22;697;51.114;6.542;2023-09-19T16:21:14;24.10;52.20
1405;DHT22;697;51.114;6.542;2023-09-19T16:23:44;24.10;51.90
1405;DHT22;697;51.114;6.542;2023-09-19T16:26:11;23.90;51.40
1405;DHT22;697;51.114;6.542;2023-09-19T16:28:39;23.50;51.60
1405;DHT22;697;51.114;6.542;2023-09-19T16:31:07;23.20;52.90
1405;DHT22;697;51.114;6.542;2023-09-19T16:33:35;23.00;53.80
1405;DHT22;697;51.114;6.542;2023-09-19T16:36:07;22.80;53.70
1405;DHT22;697;51.114;6.542;2023-09-19T16:38:35;22.70;54.50
1405;DHT22;697;51.114;6.542;2023-09-19T16:41:02;22.60;55.10